sensor_id;sensor_type;location;lat;lon;timestamp;pressure;altitude;pressure_sealevel;temperature;humidity
19624;BME280;9959;49.798;9.928;2022-11-15T00:01:07;99319.03;;;7.04;nan
19624;BME280;9959;49.798;9.928;2022-11-15T00:03:36;99317.03;;;7.06;nan
19624;BME280;9959;49.798;9.928;2022-11-15T00:06:04;99318.41;;;7.08;nan
19624;BME280;9959;49.798;9.928;2022-11-15T00:08:32;99321.03;;;7.08;nan
19624;BME280;9959;49.798;9.928;2022-11-15T00:11:02;99315.22;;;7.06;nan
19624;BME280;9959;49.798;9.928;2022-11-15T00:13:30;99316.63;;;7.09;nan
19624;BME280;9959;49.798;9.928;2022-11-15T00:16:00;99316.63;;;7.09;nan
19624;BME280;9959;49.798;9.928;2022-11-15T00:18:29;99320.84;;;7.10;nan
19624;BME280;9959;49.798;9.928;2022-11-15T00:21:04;99314.59;;;7.04;nan
19624;BME280;9959;49.798;9.928;2022-11-15T00:23:33;99319.66;;;7.06;nan
19624;BME280;9959;49.798;9.928;2022-11-15T00:26:03;99318.25;;;7.03;nan
19624;BME280;9959;49.798;9.928;2022-11-15T00:28:31;99319.47;;;7.07;nan
19624;BME280;9959;49.798;9.928;2022-11-15T00:31:00;99318.22;;;7.10;nan
19624;BME280;9959;49.798;9.928;2022-11-15T00:33:29;99314.81;;;7.03;nan
19624;BME280;9959;49.798;9.928;2022-11-15T00:36:01;99320.88;;;7.03;nan
19624;BME280;9959;49.798;9.928;2022-11-15T00:38:31;99313.22;;;7.02;nan
19624;BME280;9959;49.798;9.928;2022-11-15T00:41:02;99316.25;;;6.99;nan
19624;BME280;9959;49.798;9.928;2022-11-15T00:43:34;99316.03;;;7.00;nan
19624;BME280;9959;49.798;9.928;2022-11-15T00:46:04;99313.41;;;7.00;nan
19624;BME280;9959;49.798;9.928;2022-11-15T00:48:32;99317.03;;;6.99;nan
19624;BME280;9959;49.798;9.928;2022-11-15T00:51:00;99321.06;;;7.02;nan
19624;BME280;9959;49.798;9.928;2022-11-15T00:53:28;99313.22;;;7.02;nan
19624;BME280;9959;49.798;9.928;2022-11-15T00:55:57;99320.66;;;6.98;nan
19624;BME280;9959;49.798;9.928;2022-11-15T00:58:26;99318.47;;;6.95;nan
19624;BME280;9959;49.798;9.928;2022-11-15T01:00:54;99317.25;;;6.91;nan
19624;BME280;9959;49.798;9.928;2022-11-15T01:03:22;99313.41;;;6.93;nan
19624;BME280;9959;49.798;9.928;2022-11-15T01:05:50;99311.00;;;6.99;nan
19624;BME280;9959;49.798;9.928;2022-11-15T01:08:18;99306.75;;;6.98;nan
19624;BME280;9959;49.798;9.928;2022-11-15T01:10:46;99301.72;;;6.96;nan
19624;BME280;9959;49.798;9.928;2022-11-15T01:13:14;99304.56;;;6.94;nan
19624;BME280;9959;49.798;9.928;2022-11-15T01:15:44;99297.09;;;6.91;nan
19624;BME280;9959;49.798;9.928;2022-11-15T01:18:12;99303.97;;;6.86;nan
19624;BME280;9959;49.798;9.928;2022-11-15T01:20:41;99293.69;;;6.84;nan
19624;BME280;9959;49.798;9.928;2022-11-15T01:23:09;99288.22;;;6.92;nan
19624;BME280;9959;49.798;9.928;2022-11-15T01:25:37;99285.59;;;6.92;nan
19624;BME280;9959;49.798;9.928;2022-11-15T01:28:06;99298.31;;;6.89;nan
19624;BME280;9959;49.798;9.928;2022-11-15T01:30:35;99288.00;;;6.94;nan
19624;BME280;9959;49.798;9.928;2022-11-15T01:33:05;99272.91;;;6.89;nan
19624;BME280;9959;49.798;9.928;2022-11-15T01:35:33;99268.66;;;6.88;nan
19624;BME280;9959;49.798;9.928;2022-11-15T01:38:01;99264.44;;;6.87;nan
19624;BME280;9959;49.798;9.928;2022-11-15T01:40:29;99267.06;;;6.87;nan
19624;BME280;9959;49.798;9.928;2022-11-15T01:42:57;99256.19;;;6.90;nan
19624;BME280;9959;49.798;9.928;2022-11-15T01:45:25;99258.38;;;6.93;nan
19624;BME280;9959;49.798;9.928;2022-11-15T01:47:54;99255.78;;;6.87;nan
19624;BME280;9959;49.798;9.928;2022-11-15T01:50:28;99251.34;;;6.87;nan
19624;BME280;9959;49.798;9.928;2022-11-15T01:52:57;99255.34;;;6.90;nan
19624;BME280;9959;49.798;9.928;2022-11-15T01:55:26;99257.59;;;6.93;nan
19624;BME280;9959;49.798;9.928;2022-11-15T01:57:59;99256.38;;;6.82;nan
19624;BME280;9959;49.798;9.928;2022-11-15T02:00:28;99250.34;;;6.82;81.18
19624;BME280;9959;49.798;9.928;2022-11-15T02:02:56;99243.06;;;6.90;nan
19624;BME280;9959;49.798;9.928;2022-11-15T02:05:26;99241.03;;;6.92;82.60
19624;BME280;9959;49.798;9.928;2022-11-15T02:07:54;99245.69;;;6.90;nan
19624;BME280;9959;49.798;9.928;2022-11-15T02:10:24;99246.13;;;6.87;nan
19624;BME280;9959;49.798;9.928;2022-11-15T02:12:52;99245.69;;;6.84;nan
19624;BME280;9959;49.798;9.928;2022-11-15T02:15:24;99249.75;;;6.80;82.59
19624;BME280;9959;49.798;9.928;2022-11-15T02:18:01;99249.75;;;6.80;81.53
19624;BME280;9959;49.798;9.928;2022-11-15T02:20:47;99251.34;;;6.74;nan
19624;BME280;9959;49.798;9.928;2022-11-15T02:29:26;99228.84;;;6.46;83.95
19624;BME280;9959;49.798;9.928;2022-11-15T02:32:03;99223.00;;;6.37;nan
19624;BME280;9959;49.798;9.928;2022-11-15T02:34:36;99215.34;;;6.29;82.53
19624;BME280;9959;49.798;9.928;2022-11-15T02:37:11;99212.13;;;6.20;81.29
19624;BME280;9959;49.798;9.928;2022-11-15T02:39:48;99219.59;;;6.17;nan
19624;BME280;9959;49.798;9.928;2022-11-15T02:42:20;99224.22;;;6.08;81.80
19624;BME280;9959;49.798;9.928;2022-11-15T02:45:08;99223.22;;;6.02;nan
19624;BME280;9959;49.798;9.928;2022-11-15T02:47:43;99230.84;;;5.97;92.31
19624;BME280;9959;49.798;9.928;2022-11-15T02:50:14;99221.97;;;5.85;81.13
19624;BME280;9959;49.798;9.928;2022-11-15T02:52:45;99218.13;;;5.81;100.00
19624;BME280;9959;49.798;9.928;2022-11-15T02:55:30;99207.41;;;5.69;83.87
19624;BME280;9959;49.798;9.928;2022-11-15T02:58:20;99204.22;;;5.67;nan
19624;BME280;9959;49.798;9.928;2022-11-15T03:00:59;99217.06;;;5.62;100.00
19624;BME280;9959;49.798;9.928;2022-11-15T03:03:41;99217.47;;;5.59;82.46
19624;BME280;9959;49.798;9.928;2022-11-15T03:06:20;99217.06;;;5.55;nan
19624;BME280;9959;49.798;9.928;2022-11-15T03:08:59;99220.84;;;5.46;nan
19624;BME280;9959;49.798;9.928;2022-11-15T03:11:32;99212.63;;;5.49;nan
19624;BME280;9959;49.798;9.928;2022-11-15T03:14:11;99205.97;;;5.53;nan
19624;BME280;9959;49.798;9.928;2022-11-15T03:16:46;99208.19;;;5.49;nan
19624;BME280;9959;49.798;9.928;2022-11-15T03:19:22;99209.34;;;5.40;100.00
19624;BME280;9959;49.798;9.928;2022-11-15T03:21:55;99213.41;;;5.36;100.00
19624;BME280;9959;49.798;9.928;2022-11-15T03:24:26;99215.78;;;5.31;nan
19624;BME280;9959;49.798;9.928;2022-11-15T03:26:59;99216.19;;;5.28;100.00
19624;BME280;9959;49.798;9.928;2022-11-15T03:29:32;99211.34;;;5.25;nan
19624;BME280;9959;49.798;9.928;2022-11-15T03:32:05;99204.06;;;5.13;100.00
19624;BME280;9959;49.798;9.928;2022-11-15T03:34:39;99211.84;;;5.07;nan
19624;BME280;9959;49.798;9.928;2022-11-15T03:37:10;99201.66;;;5.12;100.00
19624;BME280;9959;49.798;9.928;2022-11-15T03:39:41;99202.41;;;5.06;100.00
19624;BME280;9959;49.798;9.928;2022-11-15T03:42:17;99197.75;;;5.01;83.80
19624;BME280;9959;49.798;9.928;2022-11-15T03:44:52;99189.13;;;5.00;92.19
19624;BME280;9959;49.798;9.928;2022-11-15T03:47:26;99189.72;;;4.96;100.00
19624;BME280;9959;49.798;9.928;2022-11-15T03:49:59;99189.16;;;5.07;81.35
19624;BME280;9959;49.798;9.928;2022-11-15T03:52:31;99188.41;;;5.27;100.00
19624;BME280;9959;49.798;9.928;2022-11-15T03:55:01;99183.78;;;5.22;100.00
19624;BME280;9959;49.798;9.928;2022-11-15T03:57:30;99187.19;;;5.22;nan
19624;BME280;9959;49.798;9.928;2022-11-15T03:59:58;99179.34;;;5.22;100.00
19624;BME280;9959;49.798;9.928;2022-11-15T04:02:26;99171.91;;;5.19;100.00
19624;BME280;9959;49.798;9.928;2022-11-15T04:04:54;99175.50;;;5.18;100.00
19624;BME280;9959;49.798;9.928;2022-11-15T04:07:23;99181.34;;;5.14;100.00
19624;BME280;9959;49.798;9.928;2022-11-15T04:09:52;99186.34;;;5.09;nan
19624;BME280;9959;49.798;9.928;2022-11-15T04:12:34;99173.47;;;5.00;86.60
19624;BME280;9959;49.798;9.928;2022-11-15T04:15:04;99178.06;;;4.98;nan
19624;BME280;9959;49.798;9.928;2022-11-15T04:17:38;99166.41;;;5.01;nan
19624;BME280;9959;49.798;9.928;2022-11-15T04:20:09;99168.03;;;5.02;100.00
19624;BME280;9959;49.798;9.928;2022-11-15T04:22:58;99173.91;;;5.11;100.00
19624;BME280;9959;49.798;9.928;2022-11-15T04:25:44;99172.66;;;5.07;100.00
19624;BME280;9959;49.798;9.928;2022-11-15T04:28:12;99181.97;;;5.16;100.00
19624;BME280;9959;49.798;9.928;2022-11-15T04:30:40;99183.56;;;5.10;100.00
19624;BME280;9959;49.798;9.928;2022-11-15T04:33:08;99171.03;;;4.99;92.19
19624;BME280;9959;49.798;9.928;2022-11-15T04:35:36;99183.03;;;4.86;nan
19624;BME280;9959;49.798;9.928;2022-11-15T04:38:07;99187.25;;;4.88;nan
19624;BME280;9959;49.798;9.928;2022-11-15T04:40:35;99181.84;;;4.89;nan
19624;BME280;9959;49.798;9.928;2022-11-15T04:43:03;99175.38;;;4.85;82.38
19624;BME280;9959;49.798;9.928;2022-11-15T04:45:31;99167.72;;;4.77;nan
19624;BME280;9959;49.798;9.928;2022-11-15T04:47:59;99169.19;;;4.86;nan
19624;BME280;9959;49.798;9.928;2022-11-15T04:50:28;99169.19;;;4.86;nan
19624;BME280;9959;49.798;9.928;2022-11-15T04:52:56;99161.31;;;4.79;100.00
19624;BME280;9959;49.798;9.928;2022-11-15T04:55:25;99163.06;;;4.72;92.15
19624;BME280;9959;49.798;9.928;2022-11-15T04:58:00;99160.06;;;4.68;100.00
19624;BME280;9959;49.798;9.928;2022-11-15T05:00:29;99157.22;;;4.63;nan
19624;BME280;9959;49.798;9.928;2022-11-15T05:02:57;99156.59;;;4.61;100.00
19624;BME280;9959;49.798;9.928;2022-11-15T05:05:43;99160.00;;;4.62;100.00
19624;BME280;9959;49.798;9.928;2022-11-15T05:08:11;99166.41;;;4.59;nan
19624;BME280;9959;49.798;9.928;2022-11-15T05:10:40;99161.63;;;4.63;81.66
19624;BME280;9959;49.798;9.928;2022-11-15T05:13:08;99152.31;;;4.54;83.74
19624;BME280;9959;49.798;9.928;2022-11-15T05:15:36;99152.56;;;4.59;nan
19624;BME280;9959;49.798;9.928;2022-11-15T05:18:04;99150.38;;;4.62;100.00
19624;BME280;9959;49.798;9.928;2022-11-15T05:20:32;99151.34;;;4.55;100.00
19624;BME280;9959;49.798;9.928;2022-11-15T05:23:00;99151.78;;;4.58;100.00
19624;BME280;9959;49.798;9.928;2022-11-15T05:25:28;99151.16;;;4.56;100.00
19624;BME280;9959;49.798;9.928;2022-11-15T05:27:58;99146.06;;;4.48;nan
19624;BME280;9959;49.798;9.928;2022-11-15T05:30:26;99135.81;;;4.46;nan
19624;BME280;9959;49.798;9.928;2022-11-15T05:32:54;99133.59;;;4.43;100.00
19624;BME280;9959;49.798;9.928;2022-11-15T05:35:30;99132.22;;;4.47;100.00
19624;BME280;9959;49.798;9.928;2022-11-15T05:37:58;99134.56;;;4.36;100.00
19624;BME280;9959;49.798;9.928;2022-11-15T05:40:27;99145.63;;;4.38;nan
19624;BME280;9959;49.798;9.928;2022-11-15T05:42:58;99153.50;;;4.44;100.00
19624;BME280;9959;49.798;9.928;2022-11-15T05:45:28;99145.84;;;4.43;100.00
19624;BME280;9959;49.798;9.928;2022-11-15T05:47:58;99139.31;;;4.25;nan
19624;BME280;9959;49.798;9.928;2022-11-15T05:50:27;99129.56;;;4.06;100.00
19624;BME280;9959;49.798;9.928;2022-11-15T05:52:55;99125.50;;;4.03;100.00
19624;BME280;9959;49.798;9.928;2022-11-15T05:55:30;99132.28;;;3.97;86.48
19624;BME280;9959;49.798;9.928;2022-11-15T05:58:01;99122.91;;;4.03;100.00
19624;BME280;9959;49.798;9.928;2022-11-15T06:00:29;99131.13;;;4.28;100.00
19624;BME280;9959;49.798;9.928;2022-11-15T06:02:57;99131.13;;;4.28;100.00
19624;BME280;9959;49.798;9.928;2022-11-15T06:05:25;99124.78;;;4.09;100.00
19624;BME280;9959;49.798;9.928;2022-11-15T06:07:56;99121.69;;;3.99;nan
19624;BME280;9959;49.798;9.928;2022-11-15T06:10:24;99128.88;;;3.97;100.00
19624;BME280;9959;49.798;9.928;2022-11-15T06:12:56;99131.75;;;4.02;nan
19624;BME280;9959;49.798;9.928;2022-11-15T06:15:26;99146.34;;;3.96;100.00
19624;BME280;9959;49.798;9.928;2022-11-15T06:17:56;99137.94;;;4.01;nan
19624;BME280;9959;49.798;9.928;2022-11-15T06:20:25;99134.75;;;3.99;100.00
19624;BME280;9959;49.798;9.928;2022-11-15T06:22:56;99136.72;;;3.97;100.00
19624;BME280;9959;49.798;9.928;2022-11-15T06:25:24;99127.91;;;3.98;nan
19624;BME280;9959;49.798;9.928;2022-11-15T06:27:52;99128.19;;;4.10;nan
19624;BME280;9959;49.798;9.928;2022-11-15T06:30:21;99130.47;;;4.20;100.00
19624;BME280;9959;49.798;9.928;2022-11-15T06:32:51;99121.25;;;4.24;nan
19624;BME280;9959;49.798;9.928;2022-11-15T06:35:19;99126.34;;;4.39;100.00
19624;BME280;9959;49.798;9.928;2022-11-15T06:37:47;99132.41;;;4.46;100.00
19624;BME280;9959;49.798;9.928;2022-11-15T06:40:15;99122.47;;;4.63;100.00
19624;BME280;9959;49.798;9.928;2022-11-15T06:42:43;99132.47;;;4.53;100.00
19624;BME280;9959;49.798;9.928;2022-11-15T06:45:11;99128.28;;;4.58;100.00
19624;BME280;9959;49.798;9.928;2022-11-15T06:47:44;99131.53;;;4.67;100.00
19624;BME280;9959;49.798;9.928;2022-11-15T06:50:13;99141.59;;;4.70;100.00
19624;BME280;9959;49.798;9.928;2022-11-15T06:52:41;99155.81;;;4.67;92.14
19624;BME280;9959;49.798;9.928;2022-11-15T06:55:09;99144.84;;;4.79;nan
19624;BME280;9959;49.798;9.928;2022-11-15T06:57:46;99143.22;;;4.78;100.00
19624;BME280;9959;49.798;9.928;2022-11-15T07:00:15;99145.81;;;4.78;nan
19624;BME280;9959;49.798;9.928;2022-11-15T07:02:43;99151.28;;;4.90;100.00
19624;BME280;9959;49.798;9.928;2022-11-15T07:05:13;99138.50;;;5.01;100.00
19624;BME280;9959;49.798;9.928;2022-11-15T07:07:41;99136.53;;;5.10;100.00
19624;BME280;9959;49.798;9.928;2022-11-15T07:10:10;99133.47;;;5.00;nan
19624;BME280;9959;49.798;9.928;2022-11-15T07:12:38;99137.75;;;5.28;100.00
19624;BME280;9959;49.798;9.928;2022-11-15T07:15:07;99134.19;;;5.42;100.00
19624;BME280;9959;49.798;9.928;2022-11-15T07:17:35;99128.53;;;5.45;100.00
19624;BME280;9959;49.798;9.928;2022-11-15T07:20:03;99138.78;;;5.33;nan
19624;BME280;9959;49.798;9.928;2022-11-15T07:22:33;99132.53;;;5.28;100.00
19624;BME280;9959;49.798;9.928;2022-11-15T07:25:01;99127.88;;;5.16;nan
19624;BME280;9959;49.798;9.928;2022-11-15T07:27:29;99135.75;;;5.23;nan
19624;BME280;9959;49.798;9.928;2022-11-15T07:29:56;99145.59;;;5.28;nan
19624;BME280;9959;49.798;9.928;2022-11-15T07:32:25;99148.41;;;5.33;100.00
19624;BME280;9959;49.798;9.928;2022-11-15T07:34:53;99142.41;;;5.39;nan
19624;BME280;9959;49.798;9.928;2022-11-15T07:37:21;99141.81;;;5.44;100.00
19624;BME280;9959;49.798;9.928;2022-11-15T07:39:50;99145.44;;;5.43;100.00
19624;BME280;9959;49.798;9.928;2022-11-15T07:42:18;99144.63;;;5.42;100.00
19624;BME280;9959;49.798;9.928;2022-11-15T07:45:04;99149.63;;;5.37;100.00
19624;BME280;9959;49.798;9.928;2022-11-15T07:47:32;99156.66;;;5.30;100.00
19624;BME280;9959;49.798;9.928;2022-11-15T07:50:00;99153.81;;;5.18;100.00
19624;BME280;9959;49.798;9.928;2022-11-15T07:52:28;62442.22;;;-147.66;100.00
19624;BME280;9959;49.798;9.928;2022-11-15T07:54:57;62442.22;;;-147.66;100.00
19624;BME280;9959;49.798;9.928;2022-11-15T07:57:25;62442.22;;;-147.66;100.00
19624;BME280;9959;49.798;9.928;2022-11-15T07:59:53;62442.22;;;-147.66;100.00
19624;BME280;9959;49.798;9.928;2022-11-15T08:02:21;62442.22;;;-147.66;100.00
19624;BME280;9959;49.798;9.928;2022-11-15T08:04:55;62442.22;;;-147.66;100.00
19624;BME280;9959;49.798;9.928;2022-11-15T08:07:23;62442.22;;;-147.66;100.00
19624;BME280;9959;49.798;9.928;2022-11-15T08:09:51;62442.22;;;-147.66;100.00
19624;BME280;9959;49.798;9.928;2022-11-15T08:12:21;62442.22;;;-147.66;100.00
19624;BME280;9959;49.798;9.928;2022-11-15T08:14:49;62442.22;;;-147.66;100.00
19624;BME280;9959;49.798;9.928;2022-11-15T08:17:17;62442.22;;;-147.66;100.00
19624;BME280;9959;49.798;9.928;2022-11-15T08:19:44;62442.22;;;-147.66;100.00
19624;BME280;9959;49.798;9.928;2022-11-15T08:22:13;62442.22;;;-147.66;100.00
19624;BME280;9959;49.798;9.928;2022-11-15T08:24:41;62442.22;;;-147.66;100.00
19624;BME280;9959;49.798;9.928;2022-11-15T08:27:09;62442.22;;;-147.66;100.00
19624;BME280;9959;49.798;9.928;2022-11-15T08:29:44;62442.22;;;-147.66;100.00
19624;BME280;9959;49.798;9.928;2022-11-15T08:32:12;62442.22;;;-147.66;100.00
19624;BME280;9959;49.798;9.928;2022-11-15T08:34:40;62442.22;;;-147.66;100.00
19624;BME280;9959;49.798;9.928;2022-11-15T08:37:08;62442.22;;;-147.66;100.00
19624;BME280;9959;49.798;9.928;2022-11-15T08:39:36;62442.22;;;-147.66;100.00
19624;BME280;9959;49.798;9.928;2022-11-15T08:42:04;62442.22;;;-147.66;100.00
19624;BME280;9959;49.798;9.928;2022-11-15T08:44:32;62442.22;;;-147.66;100.00
19624;BME280;9959;49.798;9.928;2022-11-15T08:47:02;62442.22;;;-147.66;100.00
19624;BME280;9959;49.798;9.928;2022-11-15T08:49:29;62442.22;;;-147.66;100.00
19624;BME280;9959;49.798;9.928;2022-11-15T08:51:57;62442.22;;;-147.66;100.00
19624;BME280;9959;49.798;9.928;2022-11-15T08:54:25;62442.22;;;-147.66;100.00
19624;BME280;9959;49.798;9.928;2022-11-15T08:56:53;62442.22;;;-147.66;100.00
19624;BME280;9959;49.798;9.928;2022-11-15T08:59:21;62442.22;;;-147.66;100.00
19624;BME280;9959;49.798;9.928;2022-11-15T09:01:50;62442.22;;;-147.66;100.00
19624;BME280;9959;49.798;9.928;2022-11-15T09:04:19;62442.22;;;-147.66;100.00
19624;BME280;9959;49.798;9.928;2022-11-15T09:06:47;62442.22;;;-147.66;100.00
19624;BME280;9959;49.798;9.928;2022-11-15T09:09:15;62442.22;;;-147.66;100.00
19624;BME280;9959;49.798;9.928;2022-11-15T09:11:43;62442.22;;;-147.66;100.00
19624;BME280;9959;49.798;9.928;2022-11-15T09:14:12;62442.22;;;-147.66;100.00
19624;BME280;9959;49.798;9.928;2022-11-15T09:16:40;62442.22;;;-147.66;100.00
19624;BME280;9959;49.798;9.928;2022-11-15T09:19:08;62442.22;;;-147.66;100.00
19624;BME280;9959;49.798;9.928;2022-11-15T09:21:38;62442.22;;;-147.66;100.00
19624;BME280;9959;49.798;9.928;2022-11-15T09:24:06;62442.22;;;-147.66;100.00
19624;BME280;9959;49.798;9.928;2022-11-15T09:26:35;62442.22;;;-147.66;100.00
19624;BME280;9959;49.798;9.928;2022-11-15T09:29:03;62442.22;;;-147.66;100.00
19624;BME280;9959;49.798;9.928;2022-11-15T09:31:31;62442.22;;;-147.66;100.00
19624;BME280;9959;49.798;9.928;2022-11-15T09:33:58;62442.22;;;-147.66;100.00
19624;BME280;9959;49.798;9.928;2022-11-15T09:36:26;62442.22;;;-147.66;100.00
19624;BME280;9959;49.798;9.928;2022-11-15T09:38:57;62442.22;;;-147.66;100.00
19624;BME280;9959;49.798;9.928;2022-11-15T09:41:50;62442.22;;;-147.66;100.00
19624;BME280;9959;49.798;9.928;2022-11-15T09:44:35;62442.22;;;-147.66;100.00
19624;BME280;9959;49.798;9.928;2022-11-15T09:49:59;62442.22;;;-147.66;100.00
19624;BME280;9959;49.798;9.928;2022-11-15T09:52:28;62442.22;;;-147.66;100.00
19624;BME280;9959;49.798;9.928;2022-11-15T09:54:57;62442.22;;;-147.66;100.00
19624;BME280;9959;49.798;9.928;2022-11-15T09:57:32;62442.22;;;-147.66;100.00
19624;BME280;9959;49.798;9.928;2022-11-15T10:03:12;62442.22;;;-147.66;100.00
19624;BME280;9959;49.798;9.928;2022-11-15T10:05:42;62442.22;;;-147.66;100.00
19624;BME280;9959;49.798;9.928;2022-11-15T10:08:27;62442.22;;;-147.66;100.00
19624;BME280;9959;49.798;9.928;2022-11-15T10:11:02;62442.22;;;-147.66;100.00
19624;BME280;9959;49.798;9.928;2022-11-15T10:13:53;62442.22;;;-147.66;100.00
19624;BME280;9959;49.798;9.928;2022-11-15T10:19:26;62442.22;;;-147.66;100.00
19624;BME280;9959;49.798;9.928;2022-11-15T10:22:08;62442.22;;;-147.66;100.00
19624;BME280;9959;49.798;9.928;2022-11-15T10:24:42;62442.22;;;-147.66;100.00
19624;BME280;9959;49.798;9.928;2022-11-15T10:27:13;62442.22;;;-147.66;100.00
19624;BME280;9959;49.798;9.928;2022-11-15T10:29:46;62442.22;;;-147.66;100.00
19624;BME280;9959;49.798;9.928;2022-11-15T10:32:18;62442.22;;;-147.66;100.00
19624;BME280;9959;49.798;9.928;2022-11-15T10:34:47;62442.22;;;-147.66;100.00
19624;BME280;9959;49.798;9.928;2022-11-15T10:37:27;62442.22;;;-147.66;100.00
19624;BME280;9959;49.798;9.928;2022-11-15T10:40:04;62442.22;;;-147.66;100.00
19624;BME280;9959;49.798;9.928;2022-11-15T10:42:33;62442.22;;;-147.66;100.00
19624;BME280;9959;49.798;9.928;2022-11-15T10:45:01;62442.22;;;-147.66;100.00
19624;BME280;9959;49.798;9.928;2022-11-15T10:47:31;62442.22;;;-147.66;100.00
19624;BME280;9959;49.798;9.928;2022-11-15T10:50:11;62442.22;;;-147.66;100.00
19624;BME280;9959;49.798;9.928;2022-11-15T10:52:53;62442.22;;;-147.66;100.00
19624;BME280;9959;49.798;9.928;2022-11-15T10:55:26;62442.22;;;-147.66;100.00
19624;BME280;9959;49.798;9.928;2022-11-15T10:58:02;62442.22;;;-147.66;100.00
19624;BME280;9959;49.798;9.928;2022-11-15T11:00:36;62442.22;;;-147.66;100.00
19624;BME280;9959;49.798;9.928;2022-11-15T11:03:20;62442.22;;;-147.66;100.00
19624;BME280;9959;49.798;9.928;2022-11-15T11:06:03;62442.22;;;-147.66;100.00
19624;BME280;9959;49.798;9.928;2022-11-15T11:08:32;62442.22;;;-147.66;100.00
19624;BME280;9959;49.798;9.928;2022-11-15T11:11:02;62442.22;;;-147.66;100.00
19624;BME280;9959;49.798;9.928;2022-11-15T11:13:33;62442.22;;;-147.66;100.00
19624;BME280;9959;49.798;9.928;2022-11-15T11:16:21;62442.22;;;-147.66;100.00
19624;BME280;9959;49.798;9.928;2022-11-15T11:19:03;62442.22;;;-147.66;100.00
19624;BME280;9959;49.798;9.928;2022-11-15T11:21:42;62442.22;;;-147.66;100.00
19624;BME280;9959;49.798;9.928;2022-11-15T11:24:18;62442.22;;;-147.66;100.00
19624;BME280;9959;49.798;9.928;2022-11-15T11:27:07;62442.22;;;-147.66;100.00
19624;BME280;9959;49.798;9.928;2022-11-15T11:29:49;62442.22;;;-147.66;100.00
19624;BME280;9959;49.798;9.928;2022-11-15T11:32:30;62442.22;;;-147.66;100.00
19624;BME280;9959;49.798;9.928;2022-11-15T11:35:10;62442.22;;;-147.66;100.00
19624;BME280;9959;49.798;9.928;2022-11-15T11:37:46;62442.22;;;-147.66;100.00
19624;BME280;9959;49.798;9.928;2022-11-15T11:40:24;62442.22;;;-147.66;100.00
19624;BME280;9959;49.798;9.928;2022-11-15T11:42:59;62442.22;;;-147.66;100.00
19624;BME280;9959;49.798;9.928;2022-11-15T11:45:44;62442.22;;;-147.66;100.00
19624;BME280;9959;49.798;9.928;2022-11-15T11:48:24;62442.22;;;-147.66;100.00
19624;BME280;9959;49.798;9.928;2022-11-15T11:51:05;62442.22;;;-147.66;100.00
19624;BME280;9959;49.798;9.928;2022-11-15T11:53:39;62442.22;;;-147.66;100.00
19624;BME280;9959;49.798;9.928;2022-11-15T11:56:17;62442.22;;;-147.66;100.00
19624;BME280;9959;49.798;9.928;2022-11-15T11:58:48;62442.22;;;-147.66;100.00
19624;BME280;9959;49.798;9.928;2022-11-15T12:01:22;62442.22;;;-147.66;100.00
19624;BME280;9959;49.798;9.928;2022-11-15T12:03:55;62442.22;;;-147.66;100.00
19624;BME280;9959;49.798;9.928;2022-11-15T12:06:31;62442.22;;;-147.66;100.00
19624;BME280;9959;49.798;9.928;2022-11-15T12:09:03;62442.22;;;-147.66;100.00
19624;BME280;9959;49.798;9.928;2022-11-15T12:11:38;62442.22;;;-147.66;100.00
19624;BME280;9959;49.798;9.928;2022-11-15T12:14:23;62442.22;;;-147.66;100.00
19624;BME280;9959;49.798;9.928;2022-11-15T12:16:53;62442.22;;;-147.66;100.00
19624;BME280;9959;49.798;9.928;2022-11-15T12:19:21;62442.22;;;-147.66;100.00
19624;BME280;9959;49.798;9.928;2022-11-15T12:21:54;62442.22;;;-147.66;100.00
19624;BME280;9959;49.798;9.928;2022-11-15T12:24:26;62442.22;;;-147.66;100.00
19624;BME280;9959;49.798;9.928;2022-11-15T12:27:01;62442.22;;;-147.66;100.00
19624;BME280;9959;49.798;9.928;2022-11-15T12:29:35;62442.22;;;-147.66;100.00
19624;BME280;9959;49.798;9.928;2022-11-15T12:32:17;62442.22;;;-147.66;100.00
19624;BME280;9959;49.798;9.928;2022-11-15T12:34:48;62442.22;;;-147.66;100.00
19624;BME280;9959;49.798;9.928;2022-11-15T12:40:33;62442.22;;;-147.66;100.00
19624;BME280;9959;49.798;9.928;2022-11-15T12:43:36;62442.22;;;-147.66;100.00
19624;BME280;9959;49.798;9.928;2022-11-15T12:46:11;62442.22;;;-147.66;100.00
19624;BME280;9959;49.798;9.928;2022-11-15T12:48:58;62442.22;;;-147.66;100.00
19624;BME280;9959;49.798;9.928;2022-11-15T12:55:00;62442.22;;;-147.66;100.00
19624;BME280;9959;49.798;9.928;2022-11-15T13:00:44;62442.22;;;-147.66;100.00
19624;BME280;9959;49.798;9.928;2022-11-15T13:03:24;62442.22;;;-147.66;100.00
19624;BME280;9959;49.798;9.928;2022-11-15T13:05:59;62442.22;;;-147.66;100.00
19624;BME280;9959;49.798;9.928;2022-11-15T13:08:49;62442.22;;;-147.66;100.00
19624;BME280;9959;49.798;9.928;2022-11-15T13:11:50;62442.22;;;-147.66;100.00
19624;BME280;9959;49.798;9.928;2022-11-15T13:14:41;62442.22;;;-147.66;100.00
19624;BME280;9959;49.798;9.928;2022-11-15T13:17:21;62442.22;;;-147.66;100.00
19624;BME280;9959;49.798;9.928;2022-11-15T13:19:55;62442.22;;;-147.66;100.00
19624;BME280;9959;49.798;9.928;2022-11-15T13:22:26;62442.22;;;-147.66;100.00
19624;BME280;9959;49.798;9.928;2022-11-15T13:25:17;62442.22;;;-147.66;100.00
19624;BME280;9959;49.798;9.928;2022-11-15T13:27:48;62442.22;;;-147.66;100.00
19624;BME280;9959;49.798;9.928;2022-11-15T13:30:21;62442.22;;;-147.66;100.00
19624;BME280;9959;49.798;9.928;2022-11-15T13:32:50;62442.22;;;-147.66;100.00
19624;BME280;9959;49.798;9.928;2022-11-15T13:35:21;62442.22;;;-147.66;100.00
19624;BME280;9959;49.798;9.928;2022-11-15T13:37:52;62442.22;;;-147.66;100.00
19624;BME280;9959;49.798;9.928;2022-11-15T13:40:25;62442.22;;;-147.66;100.00
19624;BME280;9959;49.798;9.928;2022-11-15T13:42:57;62442.22;;;-147.66;100.00
19624;BME280;9959;49.798;9.928;2022-11-15T13:45:25;62442.22;;;-147.66;100.00
19624;BME280;9959;49.798;9.928;2022-11-15T13:47:55;62442.22;;;-147.66;100.00
19624;BME280;9959;49.798;9.928;2022-11-15T13:50:27;62442.22;;;-147.66;100.00
19624;BME280;9959;49.798;9.928;2022-11-15T13:53:01;62442.22;;;-147.66;100.00
19624;BME280;9959;49.798;9.928;2022-11-15T13:55:31;62442.22;;;-147.66;100.00
19624;BME280;9959;49.798;9.928;2022-11-15T13:58:02;62442.22;;;-147.66;100.00